Bitflower — SBJE — position and weather

sailwx.info

Track history (hours):
 
Tides and Currents Weather Stations Pressure Air Temp Water Temp Dewpoint Dewpoint Depression Visibility Wind Speed Wind Dir Waves Ship Positions

Bitflower

Last reported at 2015-Jul-24 08:31 UTC. Time now 2015-Jul-30 14:12 UTC.
Position N 51°53' E 004°21'.

Length 116 m; draft 6.8 m.

Type: Ship. MMSI: 266009000.

Date/timePositionNaut miles runAvg speedWind from/ knotsBaromVisibWave heightAir tempDewpointWater temp
2015-Jul-24 08:31N 51°53' E 004°21'0 0.0
2015-Jul-24 07:31N 51°53' E 004°21'0 0.0
2015-Jul-24 06:31N 51°53' E 004°21'0 0.0
2015-Jul-24 05:28N 51°53' E 004°21'0 0.0
2015-Jul-24 04:31N 51°53' E 004°21'0 0.0
2015-Jul-24 03:33N 51°53' E 004°21'6 5.6
2015-Jul-24 02:33N 51°56' E 004°13'1111.3
2015-Jul-24 01:33N 51°59' E 003°55'5 4.2
2015-Jul-24 00:28N 51°57' E 003°48'0 0.0
2015-Jul-23 23:25N 51°57' E 003°48'0 0.1
2015-Jul-23 22:22N 51°57' E 003°48'0 0.0
2015-Jul-23 19:19N 51°57' E 003°48'0 0.0
2015-Jul-23 18:31N 51°57' E 003°48'0 0.0
2015-Jul-23 17:25N 51°57' E 003°48'0 0.1
2015-Jul-23 16:28N 51°57' E 003°48'0 0.1
2015-Jul-23 15:31N 51°57' E 003°48'0 0.0
2015-Jul-23 14:31N 51°57' E 003°48'0 0.0
2015-Jul-23 13:19N 51°57' E 003°48'0 0.5
2015-Jul-23 12:33N 51°57' E 003°48'6811.3
2015-Jul-23 06:33N 51°26' E 002°11'1414.6
2015-Jul-23 05:33N 51°12' E 002°01'1615.8
2015-Jul-23 04:33N 51°04' E 001°40'  
2015-Jul-19 18:19N 49°58' W 003°20'5715.0
2015-Jul-19 14:30N 50°12' W 001°53'8711.9
2015-Jul-19 07:08N 50°36' E 000°19'813.9
2015-Jul-19 06:33N 50°38' E 000°31'1413.8
2015-Jul-19 05:33N 50°45' E 000°50'1313.0
2015-Jul-19 04:33N 50°53' E 001°06'4310.7
2015-Jul-19 00:33N 51°23' E 001°55'9 8.7
2015-Jul-18 23:33N 51°23' E 002°09'1312.9
2015-Jul-18 22:33N 51°23' E 002°29'1413.6
2015-Jul-18 21:33N 51°22' E 002°51'1514.5
2015-Jul-18 20:32N 51°24' E 003°14'1414.3
2015-Jul-18 19:33N 51°25' E 003°37'1312.9
2015-Jul-18 18:33N 51°24' E 003°57'10 9.8
2015-Jul-18 17:33N 51°23' E 004°13'3 3.5
2015-Jul-18 16:33N 51°21' E 004°17'3 3.0
2015-Jul-18 15:33N 51°18' E 004°20'3 2.5
2015-Jul-18 14:33N 51°16' E 004°20'0 0.0
2015-Jul-18 13:25N 51°16' E 004°20'0 0.0
2015-Jul-18 12:33N 51°16' E 004°20'0 0.0
2015-Jul-18 11:24N 51°16' E 004°20'0 0.0
2015-Jul-18 10:34N 51°16' E 004°20'0 0.0
2015-Jul-18 09:34N 51°16' E 004°20'0 0.0
2015-Jul-18 08:31N 51°16' E 004°20'0 0.0
2015-Jul-18 07:28N 51°16' E 004°20'0 0.0
2015-Jul-18 06:31N 51°16' E 004°20'0 0.0
2015-Jul-18 05:31N 51°16' E 004°20'0 0.0
2015-Jul-18 04:33N 51°16' E 004°20'0 0.0
2015-Jul-18 03:31N 51°16' E 004°20'0 0.0
2015-Jul-18 02:31N 51°16' E 004°20'0 0.0
2015-Jul-18 01:31N 51°16' E 004°20'0 0.0
2015-Jul-18 00:33N 51°16' E 004°20'0 0.0
2015-Jul-17 23:33N 51°16' E 004°20'0 0.0
2015-Jul-17 22:31N 51°16' E 004°20'0 0.0
2015-Jul-17 21:33N 51°16' E 004°20'0 0.0
2015-Jul-17 20:33N 51°16' E 004°20'0 0.0
2015-Jul-17 19:33N 51°16' E 004°20'0 0.0
2015-Jul-17 18:31N 51°16' E 004°20'0 0.0
2015-Jul-17 17:33N 51°16' E 004°20'0 0.0
2015-Jul-17 16:33N 51°16' E 004°20'0 0.0
2015-Jul-17 15:27N 51°16' E 004°20'0 0.0
2015-Jul-17 14:33N 51°16' E 004°20'0 0.0
2015-Jul-17 13:28N 51°16' E 004°20'0 0.0
2015-Jul-17 12:31N 51°16' E 004°20'0 0.0
2015-Jul-17 11:31N 51°16' E 004°20'1 1.0
2015-Jul-17 10:33N 51°17' E 004°20'5 5.2
2015-Jul-17 09:33N 51°21' E 004°15'12 8.5
2015-Jul-17 08:12N 51°26' E 003°59'710.6
2015-Jul-17 07:33N 51°21' E 003°51'10 9.8
2015-Jul-17 06:33N 51°26' E 003°39'1010.4
2015-Jul-17 05:33N 51°24' E 003°22'1313.4
2015-Jul-17 04:33N 51°24' E 003°01'1312.6
2015-Jul-17 03:33N 51°22' E 002°41'5 4.7
2015-Jul-17 02:33N 51°22' E 002°33'1211.4
2015-Jul-17 01:29N 51°18' E 002°15'1515.9
2015-Jul-17 00:33N 51°10' E 001°55'1616.4
2015-Jul-16 23:33N 50°59' E 001°35'9512.7
2015-Jul-16 16:06N 49°51' W 000°07'712.4
2015-Jul-16 15:33N 49°44' W 000°09'1111.5
2015-Jul-16 14:33N 49°33' W 000°11'4 3.5
2015-Jul-16 13:33N 49°29' W 000°10'0 0.0
2015-Jul-16 12:33N 49°29' W 000°10'0 0.0
2015-Jul-16 11:33N 49°29' W 000°09'0 0.1
2015-Jul-16 10:33N 49°29' W 000°09'0 0.1
2015-Jul-16 09:33N 49°29' W 000°09'0 0.0
2015-Jul-16 08:32N 49°29' W 000°09'0 0.0
2015-Jul-16 07:29N 49°29' W 000°09'0 0.1
2015-Jul-16 06:32N 49°29' W 000°09'0 0.1
2015-Jul-16 05:32N 49°29' W 000°10'0 0.0
2015-Jul-16 04:32N 49°29' W 000°10'0 0.0
2015-Jul-16 03:32N 49°29' W 000°10'0 0.0
2015-Jul-16 02:32N 49°29' W 000°10'0 0.0
2015-Jul-16 01:32N 49°29' W 000°10'0 0.0
2015-Jul-16 00:32N 49°29' W 000°10'0 0.1
2015-Jul-15 23:32N 49°29' W 000°09'0 0.1
2015-Jul-15 22:32N 49°29' W 000°09'0 0.0
2015-Jul-15 21:32N 49°29' W 000°09'0 0.0
2015-Jul-15 20:32N 49°29' W 000°09'0 0.0
2015-Jul-15 19:32N 49°29' W 000°09'0 0.0
2015-Jul-15 18:32N 49°29' W 000°09'0 0.1
2015-Jul-15 17:32N 49°29' W 000°09'0 0.0
2015-Jul-15 16:32N 49°29' W 000°09'0 0.0
2015-Jul-15 15:32N 49°29' W 000°10'0 0.0
2015-Jul-15 14:32N 49°29' W 000°10'0 0.0
2015-Jul-15 13:32N 49°29' W 000°10'0 0.1
2015-Jul-15 12:32N 49°29' W 000°09'0 0.0
2015-Jul-15 11:32N 49°29' W 000°09'0 0.0
2015-Jul-15 10:32N 49°29' W 000°09'0 0.0
2015-Jul-15 09:32N 49°29' W 000°09'0 0.0
2015-Jul-15 08:32N 49°29' W 000°09'0 0.0
2015-Jul-15 07:32N 49°29' W 000°09'0 0.0
2015-Jul-15 06:32N 49°29' W 000°09'0 0.1
2015-Jul-15 05:32N 49°29' W 000°09'0 0.1
2015-Jul-15 04:33N 49°29' W 000°10'7 6.7
2015-Jul-15 03:34N 49°31' W 000°19'1010.2
2015-Jul-15 02:33N 49°36' W 000°34'10 9.8
2015-Jul-15 01:33N 49°41' W 000°46'  
Track history (hours):
 
Tides and Currents Weather Stations Pressure Air Temp Water Temp Dewpoint Dewpoint Depression Visibility Wind Speed Wind Dir Waves Ship Positions

Bitflower

Last reported at 2015-Jul-24 08:31 UTC. Time now 2015-Jul-30 14:12 UTC.
Position N 51°53' E 004°21'.

Length 116 m; draft 6.8 m.

Type: Ship. MMSI: 266009000.

Date/timePositionNaut miles runAvg speedWind from/ knotsBaromVisibWave heightAir tempDewpointWater temp
2015-Jul-24 08:31N 51°53' E 004°21'0 0.0
2015-Jul-24 07:31N 51°53' E 004°21'0 0.0
2015-Jul-24 06:31N 51°53' E 004°21'0 0.0
2015-Jul-24 05:28N 51°53' E 004°21'0 0.0
2015-Jul-24 04:31N 51°53' E 004°21'0 0.0
2015-Jul-24 03:33N 51°53' E 004°21'6 5.6
2015-Jul-24 02:33N 51°56' E 004°13'1111.3
2015-Jul-24 01:33N 51°59' E 003°55'5 4.2
2015-Jul-24 00:28N 51°57' E 003°48'0 0.0
2015-Jul-23 23:25N 51°57' E 003°48'0 0.1
2015-Jul-23 22:22N 51°57' E 003°48'0 0.0
2015-Jul-23 19:19N 51°57' E 003°48'0 0.0
2015-Jul-23 18:31N 51°57' E 003°48'0 0.0
2015-Jul-23 17:25N 51°57' E 003°48'0 0.1
2015-Jul-23 16:28N 51°57' E 003°48'0 0.1
2015-Jul-23 15:31N 51°57' E 003°48'0 0.0
2015-Jul-23 14:31N 51°57' E 003°48'0 0.0
2015-Jul-23 13:19N 51°57' E 003°48'0 0.5
2015-Jul-23 12:33N 51°57' E 003°48'6811.3
2015-Jul-23 06:33N 51°26' E 002°11'1414.6
2015-Jul-23 05:33N 51°12' E 002°01'1615.8
2015-Jul-23 04:33N 51°04' E 001°40'  
2015-Jul-19 18:19N 49°58' W 003°20'5715.0
2015-Jul-19 14:30N 50°12' W 001°53'8711.9
2015-Jul-19 07:08N 50°36' E 000°19'813.9
2015-Jul-19 06:33N 50°38' E 000°31'1413.8
2015-Jul-19 05:33N 50°45' E 000°50'1313.0
2015-Jul-19 04:33N 50°53' E 001°06'4310.7
2015-Jul-19 00:33N 51°23' E 001°55'9 8.7
2015-Jul-18 23:33N 51°23' E 002°09'1312.9
2015-Jul-18 22:33N 51°23' E 002°29'1413.6
2015-Jul-18 21:33N 51°22' E 002°51'1514.5
2015-Jul-18 20:32N 51°24' E 003°14'1414.3
2015-Jul-18 19:33N 51°25' E 003°37'1312.9
2015-Jul-18 18:33N 51°24' E 003°57'10 9.8
2015-Jul-18 17:33N 51°23' E 004°13'3 3.5
2015-Jul-18 16:33N 51°21' E 004°17'3 3.0
2015-Jul-18 15:33N 51°18' E 004°20'3 2.5
2015-Jul-18 14:33N 51°16' E 004°20'0 0.0
2015-Jul-18 13:25N 51°16' E 004°20'0 0.0
2015-Jul-18 12:33N 51°16' E 004°20'0 0.0
2015-Jul-18 11:24N 51°16' E 004°20'0 0.0
2015-Jul-18 10:34N 51°16' E 004°20'0 0.0
2015-Jul-18 09:34N 51°16' E 004°20'0 0.0
2015-Jul-18 08:31N 51°16' E 004°20'0 0.0
2015-Jul-18 07:28N 51°16' E 004°20'0 0.0
2015-Jul-18 06:31N 51°16' E 004°20'0 0.0
2015-Jul-18 05:31N 51°16' E 004°20'0 0.0
2015-Jul-18 04:33N 51°16' E 004°20'0 0.0
2015-Jul-18 03:31N 51°16' E 004°20'0 0.0
2015-Jul-18 02:31N 51°16' E 004°20'0 0.0
2015-Jul-18 01:31N 51°16' E 004°20'0 0.0
2015-Jul-18 00:33N 51°16' E 004°20'0 0.0
2015-Jul-17 23:33N 51°16' E 004°20'0 0.0
2015-Jul-17 22:31N 51°16' E 004°20'0 0.0
2015-Jul-17 21:33N 51°16' E 004°20'0 0.0
2015-Jul-17 20:33N 51°16' E 004°20'0 0.0
2015-Jul-17 19:33N 51°16' E 004°20'0 0.0
2015-Jul-17 18:31N 51°16' E 004°20'0 0.0
2015-Jul-17 17:33N 51°16' E 004°20'0 0.0
2015-Jul-17 16:33N 51°16' E 004°20'0 0.0
2015-Jul-17 15:27N 51°16' E 004°20'0 0.0
2015-Jul-17 14:33N 51°16' E 004°20'0 0.0
2015-Jul-17 13:28N 51°16' E 004°20'0 0.0
2015-Jul-17 12:31N 51°16' E 004°20'0 0.0
2015-Jul-17 11:31N 51°16' E 004°20'1 1.0
2015-Jul-17 10:33N 51°17' E 004°20'5 5.2
2015-Jul-17 09:33N 51°21' E 004°15'12 8.5
2015-Jul-17 08:12N 51°26' E 003°59'710.6
2015-Jul-17 07:33N 51°21' E 003°51'10 9.8
2015-Jul-17 06:33N 51°26' E 003°39'1010.4
2015-Jul-17 05:33N 51°24' E 003°22'1313.4
2015-Jul-17 04:33N 51°24' E 003°01'1312.6
2015-Jul-17 03:33N 51°22' E 002°41'5 4.7
2015-Jul-17 02:33N 51°22' E 002°33'1211.4
2015-Jul-17 01:29N 51°18' E 002°15'1515.9
2015-Jul-17 00:33N 51°10' E 001°55'1616.4
2015-Jul-16 23:33N 50°59' E 001°35'9512.7
2015-Jul-16 16:06N 49°51' W 000°07'712.4
2015-Jul-16 15:33N 49°44' W 000°09'1111.5
2015-Jul-16 14:33N 49°33' W 000°11'4 3.5
2015-Jul-16 13:33N 49°29' W 000°10'0 0.0
2015-Jul-16 12:33N 49°29' W 000°10'0 0.0
2015-Jul-16 11:33N 49°29' W 000°09'0 0.1
2015-Jul-16 10:33N 49°29' W 000°09'0 0.1
2015-Jul-16 09:33N 49°29' W 000°09'0 0.0
2015-Jul-16 08:32N 49°29' W 000°09'0 0.0
2015-Jul-16 07:29N 49°29' W 000°09'0 0.1
2015-Jul-16 06:32N 49°29' W 000°09'0 0.1
2015-Jul-16 05:32N 49°29' W 000°10'0 0.0
2015-Jul-16 04:32N 49°29' W 000°10'0 0.0
2015-Jul-16 03:32N 49°29' W 000°10'0 0.0
2015-Jul-16 02:32N 49°29' W 000°10'0 0.0
2015-Jul-16 01:32N 49°29' W 000°10'0 0.0
2015-Jul-16 00:32N 49°29' W 000°10'0 0.1
2015-Jul-15 23:32N 49°29' W 000°09'0 0.1
2015-Jul-15 22:32N 49°29' W 000°09'0 0.0
2015-Jul-15 21:32N 49°29' W 000°09'0 0.0
2015-Jul-15 20:32N 49°29' W 000°09'0 0.0
2015-Jul-15 19:32N 49°29' W 000°09'0 0.0
2015-Jul-15 18:32N 49°29' W 000°09'0 0.1
2015-Jul-15 17:32N 49°29' W 000°09'0 0.0
2015-Jul-15 16:32N 49°29' W 000°09'0 0.0
2015-Jul-15 15:32N 49°29' W 000°10'0 0.0
2015-Jul-15 14:32N 49°29' W 000°10'0 0.0
2015-Jul-15 13:32N 49°29' W 000°10'0 0.1
2015-Jul-15 12:32N 49°29' W 000°09'0 0.0
2015-Jul-15 11:32N 49°29' W 000°09'0 0.0
2015-Jul-15 10:32N 49°29' W 000°09'0 0.0
2015-Jul-15 09:32N 49°29' W 000°09'0 0.0
2015-Jul-15 08:32N 49°29' W 000°09'0 0.0
2015-Jul-15 07:32N 49°29' W 000°09'0 0.0
2015-Jul-15 06:32N 49°29' W 000°09'0 0.1
2015-Jul-15 05:32N 49°29' W 000°09'0 0.1
2015-Jul-15 04:33N 49°29' W 000°10'7 6.7
2015-Jul-15 03:34N 49°31' W 000°19'1010.2
2015-Jul-15 02:33N 49°36' W 000°34'10 9.8
2015-Jul-15 01:33N 49°41' W 000°46'  

Dump ship's entire track history